»·PEaware :: N2907G KSAN-KLAX

N2907G :: KSAN-KLAX

FLIGHT INFORMATION

Flight Status: Arrived
Operator: Privately registered:
United States
More flights under this callsign
Pilot: Thomas D. (10387)
Aircraft: Unknown
(B60T)
More flights by this aircraft type
Origin: KSAN San Diego Intl-Lindbergh
United States
Destination: KLAX Los Angeles Intl
United States
More flights between these airports :: More routes between these airports
Route: PEBLE6 SLI
File this flight plan on PilotEdge
Remarks: TEC
Altitude:
(Current/Filed)
8,000ft
Speed:
(Current/Filed)
160kts
Departed: 05-Jan-18 03:49 PM
Arrived: 05-Jan-18 04:27 PM
Distance/Time
Traveled:
93nm/0:38
Distance/Time
To Go:
Arrived

Flight Plot

Page will automatically refresh every two minutes.


Map Options




Map Legend


Flown Route
Filed Route
Departure Airport
Arrival Airport
Navaid (VOR, NDB)
Fix

Horizontal Profiles

Position Reports

Time Latitude Longitude Heading Altitude Ground
Speed
05-Jan-18 15:29 32.732294 -117.177528 196 18ft 0kts
05-Jan-18 15:30 32.732294 -117.177528 196 18ft 0kts
05-Jan-18 15:31 32.732294 -117.177528 196 18ft 0kts
05-Jan-18 15:32 32.732294 -117.177528 196 18ft 0kts
05-Jan-18 15:33 32.732294 -117.177528 196 18ft 0kts
05-Jan-18 15:34 32.732294 -117.177528 196 18ft 0kts
05-Jan-18 15:35 32.732294 -117.177528 196 18ft 0kts
05-Jan-18 15:36 32.732294 -117.177528 196 18ft 0kts
05-Jan-18 15:37 32.732294 -117.177528 196 18ft 0kts
05-Jan-18 15:38 32.732294 -117.177528 196 18ft 0kts
05-Jan-18 15:39 32.732294 -117.177528 196 18ft 0kts
05-Jan-18 15:40 32.732294 -117.177528 196 18ft 0kts
05-Jan-18 15:41 32.732294 -117.177528 196 18ft 0kts
05-Jan-18 15:42 32.732294 -117.177528 196 18ft 0kts
05-Jan-18 15:43 32.732294 -117.177528 196 18ft 0kts
05-Jan-18 15:44 32.732294 -117.177528 196 18ft 0kts
05-Jan-18 15:45 32.732294 -117.177528 196 18ft 0kts
05-Jan-18 15:46 32.732294 -117.177528 196 18ft 0kts
05-Jan-18 15:47 32.732294 -117.177528 196 18ft 0kts
05-Jan-18 15:48 32.732294 -117.177528 196 18ft 0kts
05-Jan-18 15:49 32.732293 -117.177528 196 18ft 0kts
05-Jan-18 15:50 32.732292 -117.177528 196 18ft 0kts
05-Jan-18 15:51 32.732284 -117.177531 196 18ft 0kts
05-Jan-18 15:52 32.731705 -117.177440 106 18ft 5kts
05-Jan-18 15:53 32.730880 -117.175508 137 18ft 0kts
05-Jan-18 15:54 32.730773 -117.175403 144 18ft 2kts
05-Jan-18 15:55 32.730791 -117.178179 285 18ft 52kts
05-Jan-18 15:56 32.744557 -117.215643 305 1385ft 138kts
05-Jan-18 15:57 32.767920 -117.255063 304 2998ft 154kts
05-Jan-18 15:58 32.793042 -117.298300 304 4512ft 162kts
05-Jan-18 15:59 32.819729 -117.343094 304 6008ft 160kts
05-Jan-18 16:00 32.843757 -117.382317 304 7462ft 138kts
05-Jan-18 16:01 32.868954 -117.422990 304 7998ft 174kts
05-Jan-18 16:02 32.900825 -117.470903 321 8004ft 192kts
05-Jan-18 16:03 32.948180 -117.503045 329 7999ft 196kts
05-Jan-18 16:04 32.990465 -117.542595 306 8008ft 194kts
05-Jan-18 16:05 33.023519 -117.593597 306 8006ft 194kts
05-Jan-18 16:06 33.056989 -117.644497 306 8010ft 194kts
05-Jan-18 16:07 33.090379 -117.695252 306 8010ft 194kts
05-Jan-18 16:08 33.123683 -117.746416 306 8011ft 194kts
05-Jan-18 16:09 33.156820 -117.797367 305 8013ft 194kts
05-Jan-18 16:10 33.194533 -117.841795 341 8018ft 198kts
05-Jan-18 16:11 33.248109 -117.860097 341 7999ft 199kts
05-Jan-18 16:12 33.301117 -117.879173 340 8001ft 199kts
05-Jan-18 16:13 33.354111 -117.898361 340 8001ft 199kts
05-Jan-18 16:14 33.399787 -117.914922 340 8001ft 199kts
05-Jan-18 16:15 33.447284 -117.932164 341 8005ft 199kts
05-Jan-18 16:16 33.500582 -117.951533 341 8003ft 200kts
05-Jan-18 16:17 33.551711 -117.970140 341 8054ft 208kts
05-Jan-18 16:18 33.605567 -117.989758 341 7586ft 216kts
05-Jan-18 16:19 33.654645 -118.007658 341 7143ft 206kts
05-Jan-18 16:20 33.708095 -118.027173 341 6991ft 195kts
05-Jan-18 16:21 33.759269 -118.045873 341 6991ft 193kts
05-Jan-18 16:22 33.809964 -118.064023 341 6991ft 192kts
05-Jan-18 16:23 33.861452 -118.082557 341 6276ft 189kts
05-Jan-18 16:24 33.906380 -118.099014 341 5441ft 157kts
05-Jan-18 16:25 33.945404 -118.113577 338 4438ft 143kts
05-Jan-18 16:26 33.958834 -118.149523 274 3571ft 136kts
05-Jan-18 16:27 33.956625 -118.194410 263 2640ft 128kts
05-Jan-18 16:28 33.952622 -118.233790 262 2115ft 112kts
05-Jan-18 16:29 33.949138 -118.267009 262 1993ft 88kts
05-Jan-18 16:30 33.945957 -118.298640 263 1518ft 98kts
05-Jan-18 16:31 33.942322 -118.329326 267 1025ft 91kts
05-Jan-18 16:32 33.939766 -118.358208 259 540ft 80kts
05-Jan-18 16:33 33.935273 -118.374306 106 129ft 0kts

Navigation Log

Ident Type
1. KSAN Airport
2. MELDY Fix
3. PEBLE Fix
4. SLI Navaid
5. KLAX Airport